sensor_id;sensor_type;location;lat;lon;timestamp;P1;durP1;ratioP1;P2;durP2;ratioP2
21152;SDS011;10734;44.792;20.482;2023-08-21T00:01:32;16.58;;;10.30;;
21152;SDS011;10734;44.792;20.482;2023-08-21T00:03:59;12.15;;;10.93;;
21152;SDS011;10734;44.792;20.482;2023-08-21T00:06:26;11.00;;;9.85;;
21152;SDS011;10734;44.792;20.482;2023-08-21T00:08:52;15.13;;;10.68;;
21152;SDS011;10734;44.792;20.482;2023-08-21T00:11:18;12.25;;;10.10;;
21152;SDS011;10734;44.792;20.482;2023-08-21T00:13:45;16.45;;;10.75;;
21152;SDS011;10734;44.792;20.482;2023-08-21T00:16:14;14.60;;;11.52;;
21152;SDS011;10734;44.792;20.482;2023-08-21T00:18:41;15.80;;;12.10;;
21152;SDS011;10734;44.792;20.482;2023-08-21T00:21:07;12.75;;;11.45;;
21152;SDS011;10734;44.792;20.482;2023-08-21T00:23:34;21.05;;;12.52;;
21152;SDS011;10734;44.792;20.482;2023-08-21T00:26:00;11.93;;;10.73;;
21152;SDS011;10734;44.792;20.482;2023-08-21T00:28:27;16.95;;;12.45;;
21152;SDS011;10734;44.792;20.482;2023-08-21T00:31:02;20.27;;;12.32;;
21152;SDS011;10734;44.792;20.482;2023-08-21T00:33:32;17.30;;;12.43;;
21152;SDS011;10734;44.792;20.482;2023-08-21T00:35:59;13.15;;;11.63;;
21152;SDS011;10734;44.792;20.482;2023-08-21T00:38:25;15.32;;;12.25;;
21152;SDS011;10734;44.792;20.482;2023-08-21T00:40:52;21.13;;;13.00;;
21152;SDS011;10734;44.792;20.482;2023-08-21T00:43:19;14.55;;;12.70;;
21152;SDS011;10734;44.792;20.482;2023-08-21T00:45:46;16.45;;;11.48;;
21152;SDS011;10734;44.792;20.482;2023-08-21T00:48:13;12.05;;;10.77;;
21152;SDS011;10734;44.792;20.482;2023-08-21T00:50:40;19.63;;;12.55;;
21152;SDS011;10734;44.792;20.482;2023-08-21T00:53:07;12.68;;;11.25;;
21152;SDS011;10734;44.792;20.482;2023-08-21T00:55:34;16.95;;;11.98;;
21152;SDS011;10734;44.792;20.482;2023-08-21T00:58:01;15.98;;;11.50;;
21152;SDS011;10734;44.792;20.482;2023-08-21T01:00:29;19.73;;;12.30;;
21152;SDS011;10734;44.792;20.482;2023-08-21T01:02:56;15.73;;;12.65;;
21152;SDS011;10734;44.792;20.482;2023-08-21T01:05:23;16.02;;;11.43;;
21152;SDS011;10734;44.792;20.482;2023-08-21T01:07:51;18.23;;;11.90;;
21152;SDS011;10734;44.792;20.482;2023-08-21T01:15:43;23.45;;;13.20;;
21152;SDS011;10734;44.792;20.482;2023-08-21T01:18:10;21.02;;;14.10;;
21152;SDS011;10734;44.792;20.482;2023-08-21T01:20:37;18.75;;;13.25;;
21152;SDS011;10734;44.792;20.482;2023-08-21T01:23:04;21.10;;;12.55;;
21152;SDS011;10734;44.792;20.482;2023-08-21T01:25:32;18.88;;;12.63;;
21152;SDS011;10734;44.792;20.482;2023-08-21T01:27:59;16.85;;;13.25;;
21152;SDS011;10734;44.792;20.482;2023-08-21T01:30:26;16.30;;;13.05;;
21152;SDS011;10734;44.792;20.482;2023-08-21T01:33:06;20.10;;;13.73;;
21152;SDS011;10734;44.792;20.482;2023-08-21T01:35:36;22.27;;;15.25;;
21152;SDS011;10734;44.792;20.482;2023-08-21T01:38:04;16.58;;;12.98;;
21152;SDS011;10734;44.792;20.482;2023-08-21T01:40:30;22.83;;;14.10;;
21152;SDS011;10734;44.792;20.482;2023-08-21T01:42:57;17.02;;;13.93;;
21152;SDS011;10734;44.792;20.482;2023-08-21T01:45:24;15.32;;;13.32;;
21152;SDS011;10734;44.792;20.482;2023-08-21T01:47:51;15.27;;;13.00;;
21152;SDS011;10734;44.792;20.482;2023-08-21T01:50:18;14.75;;;12.27;;
21152;SDS011;10734;44.792;20.482;2023-08-21T01:52:45;15.68;;;13.10;;
21152;SDS011;10734;44.792;20.482;2023-08-21T01:55:12;20.02;;;13.98;;
21152;SDS011;10734;44.792;20.482;2023-08-21T01:57:39;18.70;;;14.52;;
21152;SDS011;10734;44.792;20.482;2023-08-21T02:00:06;15.35;;;13.73;;
21152;SDS011;10734;44.792;20.482;2023-08-21T02:02:33;17.95;;;14.50;;
21152;SDS011;10734;44.792;20.482;2023-08-21T02:05:00;15.40;;;13.77;;
21152;SDS011;10734;44.792;20.482;2023-08-21T02:07:27;22.58;;;15.27;;
21152;SDS011;10734;44.792;20.482;2023-08-21T02:09:53;21.13;;;12.75;;
21152;SDS011;10734;44.792;20.482;2023-08-21T02:12:20;14.40;;;11.15;;
21152;SDS011;10734;44.792;20.482;2023-08-21T02:14:47;20.52;;;15.15;;
21152;SDS011;10734;44.792;20.482;2023-08-21T02:17:13;15.18;;;13.55;;
21152;SDS011;10734;44.792;20.482;2023-08-21T02:19:40;17.63;;;13.52;;
21152;SDS011;10734;44.792;20.482;2023-08-21T02:22:07;17.17;;;14.90;;
21152;SDS011;10734;44.792;20.482;2023-08-21T02:24:34;16.02;;;14.38;;
21152;SDS011;10734;44.792;20.482;2023-08-21T02:27:00;16.15;;;13.90;;
21152;SDS011;10734;44.792;20.482;2023-08-21T02:29:27;18.30;;;13.40;;
21152;SDS011;10734;44.792;20.482;2023-08-21T02:31:54;20.65;;;15.90;;
21152;SDS011;10734;44.792;20.482;2023-08-21T02:34:20;16.10;;;14.25;;
21152;SDS011;10734;44.792;20.482;2023-08-21T02:36:47;19.00;;;15.35;;
21152;SDS011;10734;44.792;20.482;2023-08-21T02:39:13;20.48;;;15.98;;
21152;SDS011;10734;44.792;20.482;2023-08-21T02:41:40;16.42;;;14.65;;
21152;SDS011;10734;44.792;20.482;2023-08-21T02:44:06;17.70;;;13.60;;
21152;SDS011;10734;44.792;20.482;2023-08-21T02:46:33;18.08;;;15.25;;
21152;SDS011;10734;44.792;20.482;2023-08-21T02:49:01;20.00;;;14.55;;
21152;SDS011;10734;44.792;20.482;2023-08-21T02:51:28;16.50;;;13.98;;
21152;SDS011;10734;44.792;20.482;2023-08-21T02:53:54;17.25;;;14.73;;
21152;SDS011;10734;44.792;20.482;2023-08-21T02:56:21;22.52;;;14.68;;
21152;SDS011;10734;44.792;20.482;2023-08-21T02:58:47;24.80;;;15.10;;
21152;SDS011;10734;44.792;20.482;2023-08-21T03:01:14;17.20;;;13.90;;
21152;SDS011;10734;44.792;20.482;2023-08-21T03:03:41;20.45;;;15.85;;
21152;SDS011;10734;44.792;20.482;2023-08-21T03:06:07;19.98;;;15.75;;
21152;SDS011;10734;44.792;20.482;2023-08-21T03:08:34;20.30;;;15.20;;
21152;SDS011;10734;44.792;20.482;2023-08-21T03:11:00;20.80;;;13.88;;
21152;SDS011;10734;44.792;20.482;2023-08-21T03:13:27;16.30;;;14.63;;
21152;SDS011;10734;44.792;20.482;2023-08-21T03:15:53;19.33;;;13.57;;
21152;SDS011;10734;44.792;20.482;2023-08-21T03:18:20;22.20;;;16.05;;
21152;SDS011;10734;44.792;20.482;2023-08-21T03:20:46;15.88;;;14.20;;
21152;SDS011;10734;44.792;20.482;2023-08-21T03:23:13;16.70;;;14.82;;
21152;SDS011;10734;44.792;20.482;2023-08-21T03:25:39;22.80;;;16.23;;
21152;SDS011;10734;44.792;20.482;2023-08-21T03:28:06;20.85;;;16.42;;
21152;SDS011;10734;44.792;20.482;2023-08-21T03:30:33;22.17;;;14.98;;
21152;SDS011;10734;44.792;20.482;2023-08-21T03:32:59;17.40;;;15.05;;
21152;SDS011;10734;44.792;20.482;2023-08-21T03:35:26;20.80;;;17.95;;
21152;SDS011;10734;44.792;20.482;2023-08-21T03:37:52;17.75;;;15.85;;
21152;SDS011;10734;44.792;20.482;2023-08-21T03:40:19;21.95;;;17.38;;
21152;SDS011;10734;44.792;20.482;2023-08-21T03:42:45;22.27;;;16.50;;
21152;SDS011;10734;44.792;20.482;2023-08-21T03:45:12;19.17;;;16.73;;
21152;SDS011;10734;44.792;20.482;2023-08-21T03:47:39;21.63;;;17.00;;
21152;SDS011;10734;44.792;20.482;2023-08-21T03:50:06;23.30;;;16.35;;
21152;SDS011;10734;44.792;20.482;2023-08-21T03:52:32;19.10;;;16.02;;
21152;SDS011;10734;44.792;20.482;2023-08-21T03:54:59;21.42;;;16.55;;
21152;SDS011;10734;44.792;20.482;2023-08-21T03:57:25;19.95;;;16.13;;
21152;SDS011;10734;44.792;20.482;2023-08-21T03:59:52;17.58;;;15.70;;
21152;SDS011;10734;44.792;20.482;2023-08-21T04:02:19;23.77;;;17.45;;
21152;SDS011;10734;44.792;20.482;2023-08-21T04:04:45;18.48;;;16.00;;
21152;SDS011;10734;44.792;20.482;2023-08-21T04:07:12;19.02;;;16.98;;
21152;SDS011;10734;44.792;20.482;2023-08-21T04:09:39;23.52;;;16.02;;
21152;SDS011;10734;44.792;20.482;2023-08-21T04:12:05;23.15;;;17.27;;
21152;SDS011;10734;44.792;20.482;2023-08-21T04:14:32;22.63;;;15.77;;
21152;SDS011;10734;44.792;20.482;2023-08-21T04:16:58;19.08;;;16.95;;
21152;SDS011;10734;44.792;20.482;2023-08-21T04:19:25;20.80;;;17.58;;
21152;SDS011;10734;44.792;20.482;2023-08-21T04:21:56;20.45;;;14.80;;
21152;SDS011;10734;44.792;20.482;2023-08-21T04:24:22;20.80;;;16.70;;
21152;SDS011;10734;44.792;20.482;2023-08-21T04:26:49;20.92;;;14.88;;
21152;SDS011;10734;44.792;20.482;2023-08-21T04:29:16;21.55;;;17.20;;
21152;SDS011;10734;44.792;20.482;2023-08-21T04:31:42;21.23;;;17.08;;
21152;SDS011;10734;44.792;20.482;2023-08-21T04:34:08;27.60;;;16.45;;
21152;SDS011;10734;44.792;20.482;2023-08-21T04:36:35;20.20;;;15.18;;
21152;SDS011;10734;44.792;20.482;2023-08-21T04:39:02;20.05;;;17.00;;
21152;SDS011;10734;44.792;20.482;2023-08-21T04:41:28;25.25;;;16.85;;
21152;SDS011;10734;44.792;20.482;2023-08-21T04:43:55;26.30;;;16.88;;
21152;SDS011;10734;44.792;20.482;2023-08-21T04:46:22;22.55;;;18.52;;
21152;SDS011;10734;44.792;20.482;2023-08-21T04:48:48;22.63;;;16.23;;
21152;SDS011;10734;44.792;20.482;2023-08-21T04:51:15;19.40;;;17.40;;
21152;SDS011;10734;44.792;20.482;2023-08-21T04:53:41;19.85;;;17.13;;
21152;SDS011;10734;44.792;20.482;2023-08-21T04:56:08;21.88;;;16.63;;
21152;SDS011;10734;44.792;20.482;2023-08-21T04:58:34;30.83;;;18.30;;
21152;SDS011;10734;44.792;20.482;2023-08-21T05:01:01;24.50;;;17.45;;
21152;SDS011;10734;44.792;20.482;2023-08-21T05:03:27;30.17;;;17.38;;
21152;SDS011;10734;44.792;20.482;2023-08-21T05:05:54;23.20;;;16.88;;
21152;SDS011;10734;44.792;20.482;2023-08-21T05:08:22;20.75;;;18.10;;
21152;SDS011;10734;44.792;20.482;2023-08-21T05:10:53;30.02;;;17.60;;
21152;SDS011;10734;44.792;20.482;2023-08-21T05:13:20;23.65;;;18.35;;
21152;SDS011;10734;44.792;20.482;2023-08-21T05:15:50;22.95;;;16.42;;
21152;SDS011;10734;44.792;20.482;2023-08-21T05:18:17;28.13;;;19.60;;
21152;SDS011;10734;44.792;20.482;2023-08-21T05:20:43;19.48;;;16.50;;
21152;SDS011;10734;44.792;20.482;2023-08-21T05:23:10;18.60;;;16.67;;
21152;SDS011;10734;44.792;20.482;2023-08-21T05:25:37;25.85;;;17.27;;
21152;SDS011;10734;44.792;20.482;2023-08-21T05:28:05;29.10;;;19.40;;
21152;SDS011;10734;44.792;20.482;2023-08-21T05:30:33;23.15;;;18.85;;
21152;SDS011;10734;44.792;20.482;2023-08-21T05:33:02;30.02;;;19.83;;
21152;SDS011;10734;44.792;20.482;2023-08-21T05:35:36;28.13;;;21.52;;
21152;SDS011;10734;44.792;20.482;2023-08-21T05:38:03;24.67;;;19.98;;
21152;SDS011;10734;44.792;20.482;2023-08-21T05:40:30;26.30;;;20.38;;
21152;SDS011;10734;44.792;20.482;2023-08-21T05:42:57;35.42;;;22.60;;
21152;SDS011;10734;44.792;20.482;2023-08-21T05:45:27;28.45;;;22.40;;
21152;SDS011;10734;44.792;20.482;2023-08-21T05:47:54;32.28;;;23.58;;
21152;SDS011;10734;44.792;20.482;2023-08-21T05:50:21;29.77;;;21.45;;
21152;SDS011;10734;44.792;20.482;2023-08-21T05:52:48;29.90;;;20.83;;
21152;SDS011;10734;44.792;20.482;2023-08-21T05:55:15;27.13;;;21.60;;
21152;SDS011;10734;44.792;20.482;2023-08-21T05:57:42;33.50;;;21.98;;
21152;SDS011;10734;44.792;20.482;2023-08-21T06:00:08;28.35;;;21.33;;
21152;SDS011;10734;44.792;20.482;2023-08-21T06:02:36;29.50;;;22.35;;
21152;SDS011;10734;44.792;20.482;2023-08-21T06:05:03;28.67;;;23.00;;
21152;SDS011;10734;44.792;20.482;2023-08-21T06:07:29;26.90;;;19.02;;
21152;SDS011;10734;44.792;20.482;2023-08-21T06:09:56;32.47;;;21.85;;
21152;SDS011;10734;44.792;20.482;2023-08-21T06:12:22;28.90;;;21.35;;
21152;SDS011;10734;44.792;20.482;2023-08-21T06:14:49;29.67;;;20.20;;
21152;SDS011;10734;44.792;20.482;2023-08-21T06:17:16;36.40;;;23.98;;
21152;SDS011;10734;44.792;20.482;2023-08-21T06:19:43;35.70;;;24.17;;
21152;SDS011;10734;44.792;20.482;2023-08-21T06:22:10;39.17;;;22.88;;
21152;SDS011;10734;44.792;20.482;2023-08-21T06:24:36;32.72;;;22.35;;
21152;SDS011;10734;44.792;20.482;2023-08-21T06:27:03;28.48;;;22.38;;
21152;SDS011;10734;44.792;20.482;2023-08-21T06:29:33;34.55;;;22.15;;
21152;SDS011;10734;44.792;20.482;2023-08-21T06:31:59;32.05;;;22.23;;
21152;SDS011;10734;44.792;20.482;2023-08-21T06:34:26;30.48;;;22.25;;
21152;SDS011;10734;44.792;20.482;2023-08-21T06:36:53;26.80;;;19.88;;
21152;SDS011;10734;44.792;20.482;2023-08-21T06:39:19;33.85;;;22.98;;
21152;SDS011;10734;44.792;20.482;2023-08-21T06:41:46;31.30;;;20.65;;
21152;SDS011;10734;44.792;20.482;2023-08-21T06:44:13;39.13;;;20.10;;
21152;SDS011;10734;44.792;20.482;2023-08-21T06:46:40;30.23;;;18.77;;
21152;SDS011;10734;44.792;20.482;2023-08-21T06:49:06;23.20;;;17.80;;
21152;SDS011;10734;44.792;20.482;2023-08-21T06:51:33;23.17;;;17.20;;
21152;SDS011;10734;44.792;20.482;2023-08-21T06:54:00;26.20;;;17.38;;
21152;SDS011;10734;44.792;20.482;2023-08-21T06:56:26;32.28;;;17.23;;
21152;SDS011;10734;44.792;20.482;2023-08-21T06:58:53;22.67;;;16.15;;
21152;SDS011;10734;44.792;20.482;2023-08-21T07:01:21;21.13;;;15.23;;
21152;SDS011;10734;44.792;20.482;2023-08-21T07:03:48;24.92;;;15.98;;
21152;SDS011;10734;44.792;20.482;2023-08-21T07:06:15;27.45;;;17.27;;
21152;SDS011;10734;44.792;20.482;2023-08-21T07:08:42;24.55;;;14.88;;
21152;SDS011;10734;44.792;20.482;2023-08-21T07:11:08;22.08;;;15.00;;
21152;SDS011;10734;44.792;20.482;2023-08-21T07:13:36;18.40;;;13.40;;
21152;SDS011;10734;44.792;20.482;2023-08-21T07:16:03;20.92;;;13.35;;
21152;SDS011;10734;44.792;20.482;2023-08-21T07:18:32;26.20;;;14.10;;
21152;SDS011;10734;44.792;20.482;2023-08-21T07:21:00;22.92;;;14.73;;
21152;SDS011;10734;44.792;20.482;2023-08-21T07:23:40;22.83;;;13.27;;
21152;SDS011;10734;44.792;20.482;2023-08-21T07:26:07;19.88;;;13.05;;
21152;SDS011;10734;44.792;20.482;2023-08-21T07:28:34;24.67;;;13.52;;
21152;SDS011;10734;44.792;20.482;2023-08-21T07:31:01;17.77;;;11.93;;
21152;SDS011;10734;44.792;20.482;2023-08-21T07:33:28;19.33;;;13.77;;
21152;SDS011;10734;44.792;20.482;2023-08-21T07:35:58;19.27;;;13.05;;
21152;SDS011;10734;44.792;20.482;2023-08-21T07:38:25;24.30;;;13.87;;
21152;SDS011;10734;44.792;20.482;2023-08-21T07:41:01;16.27;;;12.77;;
21152;SDS011;10734;44.792;20.482;2023-08-21T07:43:31;27.88;;;14.25;;
21152;SDS011;10734;44.792;20.482;2023-08-21T07:46:01;19.10;;;13.50;;
21152;SDS011;10734;44.792;20.482;2023-08-21T07:48:31;25.15;;;15.00;;
21152;SDS011;10734;44.792;20.482;2023-08-21T07:50:58;20.58;;;14.68;;
21152;SDS011;10734;44.792;20.482;2023-08-21T07:53:25;24.38;;;13.68;;
21152;SDS011;10734;44.792;20.482;2023-08-21T07:55:52;21.17;;;14.63;;
21152;SDS011;10734;44.792;20.482;2023-08-21T07:58:19;20.92;;;14.70;;
21152;SDS011;10734;44.792;20.482;2023-08-21T08:00:46;24.33;;;16.38;;
21152;SDS011;10734;44.792;20.482;2023-08-21T08:03:14;26.83;;;14.80;;
21152;SDS011;10734;44.792;20.482;2023-08-21T08:05:41;18.25;;;13.60;;
21152;SDS011;10734;44.792;20.482;2023-08-21T08:08:17;24.45;;;14.60;;
21152;SDS011;10734;44.792;20.482;2023-08-21T08:10:44;22.90;;;13.13;;
21152;SDS011;10734;44.792;20.482;2023-08-21T08:13:11;28.88;;;14.15;;
21152;SDS011;10734;44.792;20.482;2023-08-21T08:15:38;20.17;;;13.07;;
21152;SDS011;10734;44.792;20.482;2023-08-21T08:18:05;23.30;;;14.95;;
21152;SDS011;10734;44.792;20.482;2023-08-21T08:20:33;23.48;;;13.57;;
21152;SDS011;10734;44.792;20.482;2023-08-21T08:23:00;27.02;;;15.07;;
21152;SDS011;10734;44.792;20.482;2023-08-21T08:25:27;23.95;;;16.25;;
21152;SDS011;10734;44.792;20.482;2023-08-21T08:27:53;27.55;;;15.32;;
21152;SDS011;10734;44.792;20.482;2023-08-21T08:30:20;19.15;;;14.60;;
21152;SDS011;10734;44.792;20.482;2023-08-21T08:32:47;26.27;;;14.57;;
21152;SDS011;10734;44.792;20.482;2023-08-21T08:35:14;21.40;;;13.07;;
21152;SDS011;10734;44.792;20.482;2023-08-21T08:37:41;15.07;;;12.48;;
21152;SDS011;10734;44.792;20.482;2023-08-21T08:40:09;25.35;;;14.90;;
21152;SDS011;10734;44.792;20.482;2023-08-21T08:42:37;21.40;;;13.90;;
21152;SDS011;10734;44.792;20.482;2023-08-21T08:45:05;19.65;;;13.48;;
21152;SDS011;10734;44.792;20.482;2023-08-21T08:47:32;23.95;;;15.48;;
21152;SDS011;10734;44.792;20.482;2023-08-21T08:50:04;24.30;;;14.43;;
21152;SDS011;10734;44.792;20.482;2023-08-21T08:52:34;22.20;;;14.65;;
21152;SDS011;10734;44.792;20.482;2023-08-21T08:55:02;18.95;;;13.23;;
21152;SDS011;10734;44.792;20.482;2023-08-21T08:57:30;22.38;;;12.10;;
21152;SDS011;10734;44.792;20.482;2023-08-21T08:59:57;23.08;;;14.77;;
21152;SDS011;10734;44.792;20.482;2023-08-21T09:02:25;18.48;;;13.70;;
21152;SDS011;10734;44.792;20.482;2023-08-21T09:04:55;21.87;;;13.37;;
21152;SDS011;10734;44.792;20.482;2023-08-21T09:07:22;21.33;;;12.50;;
21152;SDS011;10734;44.792;20.482;2023-08-21T09:09:49;21.10;;;12.57;;
21152;SDS011;10734;44.792;20.482;2023-08-21T09:12:16;21.80;;;12.02;;
21152;SDS011;10734;44.792;20.482;2023-08-21T09:14:44;20.05;;;11.90;;
21152;SDS011;10734;44.792;20.482;2023-08-21T09:17:11;18.23;;;10.50;;
21152;SDS011;10734;44.792;20.482;2023-08-21T09:19:38;18.95;;;11.40;;
21152;SDS011;10734;44.792;20.482;2023-08-21T09:24:36;23.17;;;13.02;;
21152;SDS011;10734;44.792;20.482;2023-08-21T09:27:05;22.15;;;12.80;;
21152;SDS011;10734;44.792;20.482;2023-08-21T09:29:39;25.20;;;11.23;;
21152;SDS011;10734;44.792;20.482;2023-08-21T09:32:08;17.40;;;10.88;;
21152;SDS011;10734;44.792;20.482;2023-08-21T09:34:38;19.15;;;9.52;;
21152;SDS011;10734;44.792;20.482;2023-08-21T09:37:05;15.40;;;8.90;;
21152;SDS011;10734;44.792;20.482;2023-08-21T09:39:34;19.58;;;10.45;;
21152;SDS011;10734;44.792;20.482;2023-08-21T09:42:08;14.20;;;8.80;;
21152;SDS011;10734;44.792;20.482;2023-08-21T09:44:37;17.25;;;9.57;;
21152;SDS011;10734;44.792;20.482;2023-08-21T09:47:10;12.75;;;9.27;;
21152;SDS011;10734;44.792;20.482;2023-08-21T09:49:38;15.52;;;9.15;;
21152;SDS011;10734;44.792;20.482;2023-08-21T09:52:06;14.57;;;8.20;;
21152;SDS011;10734;44.792;20.482;2023-08-21T09:54:37;14.77;;;8.80;;
21152;SDS011;10734;44.792;20.482;2023-08-21T09:57:04;15.13;;;9.00;;
21152;SDS011;10734;44.792;20.482;2023-08-21T09:59:31;13.77;;;8.50;;
21152;SDS011;10734;44.792;20.482;2023-08-21T10:01:59;10.32;;;8.13;;
21152;SDS011;10734;44.792;20.482;2023-08-21T10:04:27;11.10;;;7.72;;
21152;SDS011;10734;44.792;20.482;2023-08-21T10:06:56;10.32;;;8.00;;
21152;SDS011;10734;44.792;20.482;2023-08-21T10:09:24;11.73;;;8.32;;
21152;SDS011;10734;44.792;20.482;2023-08-21T10:11:53;12.82;;;7.97;;
21152;SDS011;10734;44.792;20.482;2023-08-21T10:14:23;12.82;;;8.07;;
21152;SDS011;10734;44.792;20.482;2023-08-21T10:16:51;11.53;;;8.03;;
21152;SDS011;10734;44.792;20.482;2023-08-21T10:19:20;8.95;;;7.53;;
21152;SDS011;10734;44.792;20.482;2023-08-21T10:21:47;10.18;;;7.18;;
21152;SDS011;10734;44.792;20.482;2023-08-21T10:24:27;14.25;;;7.32;;
21152;SDS011;10734;44.792;20.482;2023-08-21T10:26:59;12.00;;;7.30;;
21152;SDS011;10734;44.792;20.482;2023-08-21T10:29:26;10.13;;;7.10;;
21152;SDS011;10734;44.792;20.482;2023-08-21T10:32:00;8.95;;;6.53;;
21152;SDS011;10734;44.792;20.482;2023-08-21T10:34:31;8.65;;;6.57;;
21152;SDS011;10734;44.792;20.482;2023-08-21T10:39:26;9.93;;;6.88;;
21152;SDS011;10734;44.792;20.482;2023-08-21T10:42:01;8.88;;;6.28;;
21152;SDS011;10734;44.792;20.482;2023-08-21T10:47:15;8.30;;;6.65;;
21152;SDS011;10734;44.792;20.482;2023-08-21T10:49:50;7.60;;;6.10;;
21152;SDS011;10734;44.792;20.482;2023-08-21T10:52:37;8.02;;;6.57;;
21152;SDS011;10734;44.792;20.482;2023-08-21T10:55:09;7.18;;;6.28;;
21152;SDS011;10734;44.792;20.482;2023-08-21T10:57:38;8.57;;;6.68;;
21152;SDS011;10734;44.792;20.482;2023-08-21T11:00:10;9.77;;;6.35;;
21152;SDS011;10734;44.792;20.482;2023-08-21T11:02:40;9.18;;;5.97;;
21152;SDS011;10734;44.792;20.482;2023-08-21T11:05:09;9.27;;;6.50;;
21152;SDS011;10734;44.792;20.482;2023-08-21T11:07:37;12.50;;;6.78;;
21152;SDS011;10734;44.792;20.482;2023-08-21T11:10:06;12.05;;;6.65;;
21152;SDS011;10734;44.792;20.482;2023-08-21T11:12:37;7.43;;;6.10;;
21152;SDS011;10734;44.792;20.482;2023-08-21T11:15:04;9.57;;;6.78;;
21152;SDS011;10734;44.792;20.482;2023-08-21T11:17:32;11.13;;;6.97;;
21152;SDS011;10734;44.792;20.482;2023-08-21T11:20:00;8.18;;;6.10;;
21152;SDS011;10734;44.792;20.482;2023-08-21T11:22:31;9.00;;;6.20;;
21152;SDS011;10734;44.792;20.482;2023-08-21T11:24:58;12.02;;;7.05;;
21152;SDS011;10734;44.792;20.482;2023-08-21T11:27:28;13.00;;;6.78;;
21152;SDS011;10734;44.792;20.482;2023-08-21T11:29:55;9.40;;;6.85;;
21152;SDS011;10734;44.792;20.482;2023-08-21T11:32:22;12.07;;;7.05;;
21152;SDS011;10734;44.792;20.482;2023-08-21T11:34:51;10.73;;;6.00;;
21152;SDS011;10734;44.792;20.482;2023-08-21T11:37:20;9.73;;;6.20;;
21152;SDS011;10734;44.792;20.482;2023-08-21T11:39:48;14.18;;;7.00;;
21152;SDS011;10734;44.792;20.482;2023-08-21T11:42:20;8.10;;;6.07;;
21152;SDS011;10734;44.792;20.482;2023-08-21T11:44:52;8.63;;;6.20;;
21152;SDS011;10734;44.792;20.482;2023-08-21T11:47:20;10.98;;;6.93;;
21152;SDS011;10734;44.792;20.482;2023-08-21T11:49:48;7.50;;;6.32;;
21152;SDS011;10734;44.792;20.482;2023-08-21T11:52:19;7.72;;;6.50;;
21152;SDS011;10734;44.792;20.482;2023-08-21T11:54:48;8.30;;;6.47;;
21152;SDS011;10734;44.792;20.482;2023-08-21T11:57:17;9.35;;;5.95;;
21152;SDS011;10734;44.792;20.482;2023-08-21T11:59:51;9.32;;;6.22;;
21152;SDS011;10734;44.792;20.482;2023-08-21T12:02:24;6.38;;;5.70;;
21152;SDS011;10734;44.792;20.482;2023-08-21T12:04:58;6.85;;;6.00;;
21152;SDS011;10734;44.792;20.482;2023-08-21T12:07:28;8.60;;;5.63;;
21152;SDS011;10734;44.792;20.482;2023-08-21T12:09:56;8.50;;;6.60;;
21152;SDS011;10734;44.792;20.482;2023-08-21T12:12:23;8.90;;;5.40;;
21152;SDS011;10734;44.792;20.482;2023-08-21T12:14:50;7.38;;;6.18;;
21152;SDS011;10734;44.792;20.482;2023-08-21T12:17:35;9.45;;;6.28;;
21152;SDS011;10734;44.792;20.482;2023-08-21T12:20:02;8.18;;;6.72;;
21152;SDS011;10734;44.792;20.482;2023-08-21T12:22:37;10.18;;;6.65;;
21152;SDS011;10734;44.792;20.482;2023-08-21T12:25:05;6.45;;;5.82;;
21152;SDS011;10734;44.792;20.482;2023-08-21T12:27:32;10.18;;;5.60;;
21152;SDS011;10734;44.792;20.482;2023-08-21T12:29:59;8.00;;;5.85;;
21152;SDS011;10734;44.792;20.482;2023-08-21T12:32:26;7.25;;;5.78;;
21152;SDS011;10734;44.792;20.482;2023-08-21T12:34:53;9.50;;;5.68;;
21152;SDS011;10734;44.792;20.482;2023-08-21T12:37:20;7.90;;;5.40;;
21152;SDS011;10734;44.792;20.482;2023-08-21T12:39:47;9.13;;;5.25;;
21152;SDS011;10734;44.792;20.482;2023-08-21T12:42:14;8.75;;;5.88;;
21152;SDS011;10734;44.792;20.482;2023-08-21T12:44:40;10.75;;;5.15;;
21152;SDS011;10734;44.792;20.482;2023-08-21T12:47:07;12.25;;;5.80;;
21152;SDS011;10734;44.792;20.482;2023-08-21T12:49:34;7.60;;;5.85;;
21152;SDS011;10734;44.792;20.482;2023-08-21T12:52:02;8.55;;;5.40;;
21152;SDS011;10734;44.792;20.482;2023-08-21T12:54:32;9.43;;;5.18;;
21152;SDS011;10734;44.792;20.482;2023-08-21T12:56:58;8.85;;;5.22;;
21152;SDS011;10734;44.792;20.482;2023-08-21T12:59:25;6.53;;;5.20;;
21152;SDS011;10734;44.792;20.482;2023-08-21T13:01:52;13.88;;;6.10;;
21152;SDS011;10734;44.792;20.482;2023-08-21T13:04:19;5.97;;;4.80;;
21152;SDS011;10734;44.792;20.482;2023-08-21T13:06:46;7.22;;;5.50;;
21152;SDS011;10734;44.792;20.482;2023-08-21T13:09:12;9.40;;;6.05;;
21152;SDS011;10734;44.792;20.482;2023-08-21T13:11:39;7.35;;;5.65;;
21152;SDS011;10734;44.792;20.482;2023-08-21T13:14:06;8.85;;;5.70;;
21152;SDS011;10734;44.792;20.482;2023-08-21T13:16:33;8.82;;;5.70;;
21152;SDS011;10734;44.792;20.482;2023-08-21T13:19:00;12.27;;;5.53;;
21152;SDS011;10734;44.792;20.482;2023-08-21T13:21:26;8.52;;;5.00;;
21152;SDS011;10734;44.792;20.482;2023-08-21T13:23:53;8.52;;;5.68;;
21152;SDS011;10734;44.792;20.482;2023-08-21T13:26:20;5.93;;;5.38;;
21152;SDS011;10734;44.792;20.482;2023-08-21T13:28:47;12.60;;;5.72;;
21152;SDS011;10734;44.792;20.482;2023-08-21T13:31:14;10.02;;;5.97;;
21152;SDS011;10734;44.792;20.482;2023-08-21T13:33:44;9.45;;;5.28;;
21152;SDS011;10734;44.792;20.482;2023-08-21T13:36:17;9.15;;;5.50;;
21152;SDS011;10734;44.792;20.482;2023-08-21T13:38:50;6.55;;;5.25;;
21152;SDS011;10734;44.792;20.482;2023-08-21T13:41:17;5.80;;;5.22;;
21152;SDS011;10734;44.792;20.482;2023-08-21T13:43:43;7.03;;;4.90;;
21152;SDS011;10734;44.792;20.482;2023-08-21T13:46:11;7.82;;;4.88;;
21152;SDS011;10734;44.792;20.482;2023-08-21T13:48:38;7.95;;;5.30;;
21152;SDS011;10734;44.792;20.482;2023-08-21T13:51:05;5.22;;;4.72;;
21152;SDS011;10734;44.792;20.482;2023-08-21T13:53:32;7.22;;;4.88;;
21152;SDS011;10734;44.792;20.482;2023-08-21T13:55:59;9.23;;;5.38;;
21152;SDS011;10734;44.792;20.482;2023-08-21T13:58:26;10.68;;;5.35;;
21152;SDS011;10734;44.792;20.482;2023-08-21T14:04:44;5.03;;;4.45;;
21152;SDS011;10734;44.792;20.482;2023-08-21T14:07:12;15.02;;;5.03;;
21152;SDS011;10734;44.792;20.482;2023-08-21T14:09:39;6.40;;;4.72;;
21152;SDS011;10734;44.792;20.482;2023-08-21T14:12:06;5.55;;;4.60;;
21152;SDS011;10734;44.792;20.482;2023-08-21T14:14:34;5.53;;;4.82;;
21152;SDS011;10734;44.792;20.482;2023-08-21T14:17:02;6.18;;;5.18;;
21152;SDS011;10734;44.792;20.482;2023-08-21T14:19:30;4.82;;;4.43;;
21152;SDS011;10734;44.792;20.482;2023-08-21T14:21:58;8.02;;;4.40;;
21152;SDS011;10734;44.792;20.482;2023-08-21T14:24:26;6.22;;;4.70;;
21152;SDS011;10734;44.792;20.482;2023-08-21T14:29:22;8.65;;;4.35;;
21152;SDS011;10734;44.792;20.482;2023-08-21T14:34:36;8.32;;;5.25;;
21152;SDS011;10734;44.792;20.482;2023-08-21T14:37:03;9.45;;;5.05;;
21152;SDS011;10734;44.792;20.482;2023-08-21T14:39:30;6.88;;;5.15;;
21152;SDS011;10734;44.792;20.482;2023-08-21T14:41:57;8.75;;;4.88;;